Time;durP1;ratioP1;P1;durP2;ratioP2;P2;SDS_P1;SDS_P2;PMS_P1;PMS_P2;Temp;Humidity;BMP_temperature;BMP_pressure;BME280_temperature;BME280_humidity;BME280_pressure;Samples;Min_cycle;Max_cycle;Signal;HPM_P1;HPM_P2
2022/10/22 00:01:51;;;;;;;11.35;3.85;;;;;;;17.64;100.00;100245.53;5014452;28;20030;-71
2022/10/22 00:04:17;;;;;;;8.88;3.05;;;;;;;17.64;100.00;100237.38;5013710;28;20041;-71
2022/10/22 00:06:43;;;;;;;6.30;2.78;;;;;;;17.62;100.00;100237.00;5014735;28;20418;-71
2022/10/22 00:09:10;;;;;;;5.85;3.17;;;;;;;17.63;100.00;100244.00;5014877;28;20108;-69
2022/10/22 00:11:35;;;;;;;8.52;3.63;;;;;;;17.63;100.00;100241.28;5014659;28;20046;-71
2022/10/22 00:14:01;;;;;;;6.03;2.80;;;;;;;17.62;100.00;100237.00;5029048;28;20112;-71
2022/10/22 00:16:26;;;;;;;5.88;2.58;;;;;;;17.64;100.00;100242.81;5018015;28;20056;-69
2022/10/22 00:18:52;;;;;;;7.05;3.40;;;;;;;17.64;100.00;100240.09;5022178;28;20036;-69
2022/10/22 00:21:17;;;;;;;7.85;2.80;;;;;;;17.64;100.00;100239.31;5014589;28;20022;-69
2022/10/22 00:23:42;;;;;;;6.38;3.28;;;;;;;17.65;100.00;100247.06;5014227;28;20053;-69
2022/10/22 00:26:09;;;;;;;8.05;3.08;;;;;;;17.66;100.00;100258.72;5011714;28;20038;-70
2022/10/22 00:28:34;;;;;;;6.07;3.25;;;;;;;17.66;100.00;100254.06;5014121;28;20055;-70
2022/10/22 00:31:01;;;;;;;10.38;3.15;;;;;;;17.65;100.00;100260.69;5013926;28;20030;-71
2022/10/22 00:33:27;;;;;;;7.15;3.22;;;;;;;17.67;100.00;100266.50;5013093;28;20196;-72
2022/10/22 00:35:53;;;;;;;7.80;2.88;;;;;;;17.65;100.00;100263.41;5013290;28;20414;-71
2022/10/22 00:38:18;;;;;;;11.05;3.13;;;;;;;17.65;100.00;100263.41;5014283;28;20028;-71
2022/10/22 00:40:44;;;;;;;7.72;3.92;;;;;;;17.60;100.00;100258.44;5012918;28;20038;-71
2022/10/22 00:43:11;;;;;;;6.45;2.92;;;;;;;17.65;100.00;100265.38;5012920;28;20128;-71
2022/10/22 00:45:37;;;;;;;8.27;3.47;;;;;;;17.63;100.00;100265.81;5010250;28;20033;-71
2022/10/22 00:48:12;;;;;;;10.23;4.00;;;;;;;17.55;100.00;100269.81;5013972;28;20516;-72
2022/10/22 00:50:42;;;;;;;9.02;3.45;;;;;;;17.60;100.00;100266.59;5013784;28;20045;-71
2022/10/22 00:53:13;;;;;;;6.85;2.90;;;;;;;17.60;100.00;100266.59;5013718;28;20475;-71
2022/10/22 00:55:40;;;;;;;7.30;3.28;;;;;;;17.63;100.00;100270.47;5011835;28;20069;-71
2022/10/22 00:58:06;;;;;;;6.45;3.25;;;;;;;17.64;100.00;100272.78;5013887;28;20030;-71
2022/10/22 01:00:31;;;;;;;7.15;3.05;;;;;;;17.62;100.00;100266.97;5012437;28;20045;-71
2022/10/22 01:02:58;;;;;;;5.13;3.00;;;;;;;17.62;100.00;100258.78;5013532;28;20037;-71
2022/10/22 01:05:27;;;;;;;8.27;2.80;;;;;;;17.62;100.00;100258.00;5012803;28;20021;-71
2022/10/22 01:07:53;;;;;;;6.88;3.25;;;;;;;17.60;100.00;100263.88;5014053;28;20038;-71
2022/10/22 01:10:51;;;;;;;7.00;3.38;;;;;;;17.60;100.00;100269.31;5013468;28;20497;-71
2022/10/22 01:13:42;;;;;;;6.05;2.67;;;;;;;17.62;100.00;100269.69;4976773;28;20050;-71
2022/10/22 01:16:14;;;;;;;6.60;2.97;;;;;;;17.56;100.00;100260.44;5013903;28;20079;-71
2022/10/22 01:18:47;;;;;;;10.23;3.65;;;;;;;17.59;100.00;100258.84;5026558;28;20048;-71
2022/10/22 01:21:36;;;;;;;7.97;3.22;;;;;;;17.63;100.00;100265.81;5028685;28;20034;-71
2022/10/22 01:24:23;;;;;;;9.07;3.60;;;;;;;17.64;100.00;100266.53;5010739;28;20064;-71
2022/10/22 01:27:07;;;;;;;5.97;3.03;;;;;;;17.63;100.00;100271.25;5011023;28;20399;-71
2022/10/22 01:29:37;;;;;;;9.45;2.88;;;;;;;17.64;100.00;100278.22;5013398;28;20038;-71
2022/10/22 01:32:09;;;;;;;6.70;3.20;;;;;;;17.61;100.00;100279.06;5013194;28;20052;-71
2022/10/22 01:34:38;;;;;;;7.35;3.17;;;;;;;17.59;100.00;100278.69;5012195;28;20541;-71
2022/10/22 01:37:03;;;;;;;7.65;3.38;;;;;;;17.61;100.00;100283.72;5012801;28;20486;-71
2022/10/22 01:39:30;;;;;;;8.45;3.78;;;;;;;17.58;100.00;100274.41;5013158;28;20087;-71
2022/10/22 01:41:56;;;;;;;9.57;3.08;;;;;;;17.57;100.00;100281.06;5013058;28;20034;-71
2022/10/22 01:44:33;;;;;;;7.93;3.38;;;;;;;17.52;100.00;100281.50;5011941;28;20044;-71
2022/10/22 01:47:22;;;;;;;5.40;2.90;;;;;;;17.54;100.00;100281.84;4995397;28;20042;-71
2022/10/22 01:50:12;;;;;;;8.35;3.13;;;;;;;17.57;100.00;100275.59;5027913;28;20042;-71
2022/10/22 01:52:55;;;;;;;8.13;2.80;;;;;;;17.59;100.00;100286.09;5012614;28;20089;-72
2022/10/22 01:55:39;;;;;;;13.02;3.42;;;;;;;17.63;100.00;100292.25;5011826;28;20431;-71
2022/10/22 01:58:19;;;;;;;9.63;3.70;;;;;;;17.58;100.00;100296.19;5011231;28;20100;-71
2022/10/22 02:01:14;;;;;;;6.93;2.55;;;;;;;17.60;100.00;100288.38;5012547;28;20041;-71
2022/10/22 02:03:49;;;;;;;10.13;2.78;;;;;;;17.60;100.00;100293.06;4985488;28;20061;-71
2022/10/22 02:06:19;;;;;;;7.10;2.97;;;;;;;17.58;100.00;100295.41;5011718;28;20069;-71
2022/10/22 02:08:47;;;;;;;10.25;3.17;;;;;;;17.56;100.00;100289.63;5011184;28;20148;-71
2022/10/22 02:11:17;;;;;;;5.53;2.72;;;;;;;17.52;100.00;100286.94;5012165;28;20371;-71
2022/10/22 02:13:50;;;;;;;5.75;2.30;;;;;;;17.47;100.00;100273.78;5012447;28;20103;-69
2022/10/22 02:16:21;;;;;;;6.45;2.80;;;;;;;17.42;100.00;100271.50;5013449;28;20072;-69
2022/10/22 02:18:52;;;;;;;5.93;2.72;;;;;;;17.35;100.00;100255.25;5027286;28;20041;-69
2022/10/22 02:21:18;;;;;;;6.03;2.50;;;;;;;17.29;100.00;100254.19;5012036;28;20034;-71
2022/10/22 02:23:43;;;;;;;5.88;2.72;;;;;;;17.21;100.00;100250.00;4994439;28;20461;-69
2022/10/22 02:26:22;;;;;;;8.18;2.33;;;;;;;17.14;100.00;100266.44;5023682;28;20096;-70
2022/10/22 02:28:57;;;;;;;4.30;1.92;;;;;;;17.10;100.00;100271.16;5010662;28;20038;-71
2022/10/22 02:31:29;;;;;;;5.80;2.35;;;;;;;17.06;100.00;100267.69;5011689;28;20041;-71
2022/10/22 02:34:00;;;;;;;7.13;2.85;;;;;;;17.01;100.00;100268.16;5009940;28;20125;-71
2022/10/22 02:36:29;;;;;;;8.73;3.08;;;;;;;16.98;100.00;100274.41;5011787;28;20038;-71
2022/10/22 02:38:55;;;;;;;5.18;2.67;;;;;;;16.97;100.00;100273.66;5027268;28;20113;-71
2022/10/22 02:41:21;;;;;;;6.72;3.22;;;;;;;16.94;100.00;100268.22;5027170;28;20451;-71
2022/10/22 02:43:53;;;;;;;6.60;2.72;;;;;;;16.92;100.00;100274.09;5011753;28;20041;-71
2022/10/22 02:46:19;;;;;;;6.07;2.97;;;;;;;16.88;100.00;100275.28;5011143;28;20084;-71
2022/10/22 02:48:45;;;;;;;4.43;2.50;;;;;;;16.87;100.00;100268.31;5011693;28;20470;-71
2022/10/22 02:51:10;;;;;;;5.97;3.03;;;;;;;16.83;100.00;100268.38;5009960;28;20038;-70
2022/10/22 02:53:36;;;;;;;5.80;2.72;;;;;;;16.77;100.00;100267.25;5011201;28;20037;-68
2022/10/22 02:56:01;;;;;;;6.78;2.88;;;;;;;16.78;100.00;100266.06;5010622;28;20050;-68
2022/10/22 02:58:29;;;;;;;5.95;2.88;;;;;;;16.77;100.00;100258.31;5010396;28;20037;-68
2022/10/22 03:00:55;;;;;;;7.00;3.15;;;;;;;16.73;100.00;100263.03;5011486;28;20095;-68
2022/10/22 03:03:20;;;;;;;6.40;2.88;;;;;;;16.68;100.00;100266.22;5011476;28;20041;-68
2022/10/22 03:05:48;;;;;;;8.23;3.20;;;;;;;16.65;100.00;100264.28;5010238;28;20482;-68
2022/10/22 03:08:14;;;;;;;5.10;2.55;;;;;;;16.63;100.00;100272.06;4993028;28;20087;-68
2022/10/22 03:10:39;;;;;;;5.38;2.78;;;;;;;16.61;100.00;100269.75;5011695;28;20124;-69
2022/10/22 03:13:04;;;;;;;6.45;2.42;;;;;;;16.57;100.00;100268.28;5011335;28;20136;-69
2022/10/22 03:15:30;;;;;;;5.72;2.65;;;;;;;16.56;100.00;100267.50;5010552;28;20041;-68
2022/10/22 03:17:55;;;;;;;8.85;3.00;;;;;;;16.53;100.00;100265.56;5027658;28;20034;-69
2022/10/22 03:20:21;;;;;;;5.18;2.63;;;;;;;16.53;100.00;100275.69;5028117;28;20087;-68
2022/10/22 03:22:46;;;;;;;5.63;2.80;;;;;;;16.53;100.00;100278.41;5011617;28;20041;-69
2022/10/22 03:25:20;;;;;;;5.75;2.88;;;;;;;16.43;100.00;100276.53;5009269;28;20038;-69
2022/10/22 03:27:46;;;;;;;5.32;2.90;;;;;;;16.39;100.00;100271.13;5007392;28;20070;-69
2022/10/22 03:30:12;;;;;;;7.70;3.35;;;;;;;16.42;100.00;100269.53;5011122;28;20037;-69
2022/10/22 03:32:37;;;;;;;6.50;2.85;;;;;;;16.40;100.00;100271.88;5010973;28;20041;-70
2022/10/22 03:35:04;;;;;;;6.15;2.88;;;;;;;16.44;100.00;100278.84;5010372;28;20085;-68
2022/10/22 03:37:31;;;;;;;6.65;2.75;;;;;;;16.42;100.00;100283.13;5011176;28;20033;-69
2022/10/22 03:39:56;;;;;;;5.95;2.50;;;;;;;16.35;100.00;100291.38;5011456;28;20099;-69
2022/10/22 03:42:22;;;;;;;7.60;3.47;;;;;;;16.30;100.00;100297.25;5009604;28;20042;-69
2022/10/22 03:44:48;;;;;;;6.93;2.78;;;;;;;16.22;100.00;100310.88;5010366;28;20056;-69
2022/10/22 03:47:13;;;;;;;8.38;3.00;;;;;;;16.22;100.00;100305.44;5016929;28;20399;-69
2022/10/22 03:49:38;;;;;;;8.35;3.38;;;;;;;16.32;100.00;100303.06;5011399;28;20454;-68
2022/10/22 03:52:12;;;;;;;9.63;3.35;;;;;;;16.35;100.00;100307.69;5009701;28;20061;-69
2022/10/22 03:54:39;;;;;;;7.10;2.88;;;;;;;16.37;100.00;100310.75;5009614;28;20493;-69
2022/10/22 03:57:05;;;;;;;8.18;3.78;;;;;;;16.26;100.00;100311.63;5011172;28;20037;-69
2022/10/22 03:59:36;;;;;;;6.47;3.53;;;;;;;16.35;100.00;100311.16;5010992;28;20034;-68
2022/10/22 04:02:03;;;;;;;7.47;2.95;;;;;;;16.43;100.00;100315.38;5011125;28;20446;-68
2022/10/22 04:04:28;;;;;;;7.88;3.85;;;;;;;16.49;100.00;100318.47;5024270;28;20092;-68
2022/10/22 04:06:54;;;;;;;9.65;3.28;;;;;;;16.55;100.00;100314.88;5026004;28;20402;-68
2022/10/22 04:09:19;;;;;;;10.10;4.18;;;;;;;16.57;100.00;100314.50;5011000;28;20560;-69
2022/10/22 04:11:45;;;;;;;8.55;3.60;;;;;;;16.58;100.00;100313.31;5010342;28;20919;-69
2022/10/22 04:14:11;;;;;;;9.27;4.13;;;;;;;16.54;100.00;100316.06;5010219;28;20120;-69
2022/10/22 04:16:38;;;;;;;9.00;4.00;;;;;;;16.56;100.00;100321.09;5030293;23;20137;-66
2022/10/22 04:19:04;;;;;;;8.88;3.60;;;;;;;16.57;100.00;100322.66;5011721;28;20065;-66
2022/10/22 04:21:29;;;;;;;7.97;3.35;;;;;;;16.61;100.00;100318.72;5014405;28;20116;-66
2022/10/22 04:23:55;;;;;;;12.30;4.25;;;;;;;16.59;100.00;100321.06;5013926;28;20038;-68
2022/10/22 04:26:21;;;;;;;9.85;3.60;;;;;;;16.57;100.00;100322.66;5008063;28;20030;-66
2022/10/22 04:28:48;;;;;;;11.80;4.65;;;;;;;16.56;100.00;100330.03;4993335;28;20041;-66
2022/10/22 04:31:18;;;;;;;13.45;4.15;;;;;;;16.55;100.00;100319.56;4994774;28;20061;-66
2022/10/22 04:33:43;;;;;;;9.48;3.85;;;;;;;16.60;100.00;100325.34;5003821;28;20057;-66
2022/10/22 04:36:14;;;;;;;10.93;3.60;;;;;;;16.66;100.00;100334.59;5013466;28;20728;-66
2022/10/22 04:38:41;;;;;;;10.27;4.40;;;;;;;16.66;100.00;100325.66;5014005;28;20494;-65
2022/10/22 04:41:11;;;;;;;8.15;4.20;;;;;;;16.70;100.00;100337.28;5014056;28;20034;-66
2022/10/22 04:43:37;;;;;;;10.47;3.80;;;;;;;16.69;100.00;100339.22;4996430;28;20088;-65
2022/10/22 04:46:02;;;;;;;10.13;4.28;;;;;;;16.71;100.00;100336.88;5013330;28;20054;-65
2022/10/22 04:48:28;;;;;;;9.02;3.97;;;;;;;16.63;100.00;100338.13;5014208;28;20030;-66
2022/10/22 04:50:56;;;;;;;10.18;3.75;;;;;;;16.68;100.00;100339.63;5013375;28;20030;-66
2022/10/22 04:53:21;;;;;;;10.13;4.03;;;;;;;16.67;100.00;100333.41;5013738;28;20050;-66
2022/10/22 04:55:47;;;;;;;9.45;3.75;;;;;;;16.73;100.00;100331.03;5012944;28;20041;-65
2022/10/22 04:58:12;;;;;;;11.27;4.03;;;;;;;16.75;100.00;100325.97;5014055;28;20036;-65
2022/10/22 05:00:37;;;;;;;8.75;3.45;;;;;;;16.76;100.00;100333.72;5011744;28;20407;-66
2022/10/22 05:03:02;;;;;;;6.30;3.10;;;;;;;16.72;100.00;100332.22;5013892;28;20033;-66
2022/10/22 05:05:28;;;;;;;7.35;3.70;;;;;;;16.71;100.00;100330.66;5012701;28;20041;-66
2022/10/22 05:07:53;;;;;;;7.13;3.75;;;;;;;16.71;100.00;100330.66;5012116;28;20033;-65
2022/10/22 05:10:21;;;;;;;12.23;3.88;;;;;;;16.70;100.00;100331.84;5011461;28;20037;-66
2022/10/22 05:12:47;;;;;;;8.13;3.28;;;;;;;16.65;100.00;100343.94;5012487;28;20545;-65
2022/10/22 05:15:12;;;;;;;8.07;3.03;;;;;;;16.53;100.00;100340.94;5012561;28;20041;-65
2022/10/22 05:17:37;;;;;;;10.90;3.67;;;;;;;16.55;100.00;100344.03;5011716;28;20029;-65
2022/10/22 05:20:04;;;;;;;8.10;3.33;;;;;;;16.56;100.00;100354.50;5012781;28;20494;-66
2022/10/22 05:22:29;;;;;;;7.05;3.30;;;;;;;16.55;100.00;100355.66;5013446;28;20033;-66
2022/10/22 05:24:54;;;;;;;6.55;3.35;;;;;;;16.57;100.00;100352.56;5012325;28;20045;-66
2022/10/22 05:27:20;;;;;;;6.63;3.15;;;;;;;16.61;100.00;100351.34;5011934;28;20038;-66
2022/10/22 05:29:45;;;;;;;7.30;3.40;;;;;;;16.57;100.00;100347.13;5013481;28;20037;-66
2022/10/22 05:32:13;;;;;;;9.63;3.70;;;;;;;16.49;100.00;100340.22;5012117;28;20053;-65
2022/10/22 05:34:39;;;;;;;8.43;3.58;;;;;;;16.53;100.00;100344.41;5011669;28;20042;-65
2022/10/22 05:37:04;;;;;;;7.80;4.00;;;;;;;16.52;100.00;100351.03;5013215;28;20080;-65
2022/10/22 05:39:30;;;;;;;11.05;3.58;;;;;;;16.50;100.00;100347.16;5011811;28;20041;-66
2022/10/22 05:41:55;;;;;;;8.80;3.25;;;;;;;16.40;100.00;100348.78;5013098;28;20033;-66
2022/10/22 05:44:20;;;;;;;9.27;3.63;;;;;;;16.42;100.00;100351.88;5011567;28;20520;-65
2022/10/22 05:46:46;;;;;;;11.70;4.10;;;;;;;16.43;100.00;100345.28;5012582;28;20815;-66
2022/10/22 05:49:14;;;;;;;8.98;3.47;;;;;;;16.42;100.00;100345.66;5012992;28;20426;-66
2022/10/22 05:51:39;;;;;;;12.02;4.38;;;;;;;16.38;100.00;100344.91;5012357;28;20045;-65
2022/10/22 05:54:07;;;;;;;8.63;3.60;;;;;;;16.36;100.00;100353.47;5011456;28;20041;-66
2022/10/22 05:56:34;;;;;;;8.73;3.67;;;;;;;16.47;100.00;100356.13;5012936;28;20072;-66
2022/10/22 05:59:00;;;;;;;10.05;3.85;;;;;;;16.41;100.00;100355.78;5012804;28;20406;-65
2022/10/22 06:01:28;;;;;;;10.05;4.28;;;;;;;16.45;100.00;100358.47;5011976;28;20030;-65
2022/10/22 06:03:59;;;;;;;8.43;3.80;;;;;;;16.39;100.00;100362.78;5011951;28;20081;-66
2022/10/22 06:06:33;;;;;;;10.82;4.07;;;;;;;16.44;100.00;100362.34;5012519;28;20041;-65
2022/10/22 06:09:05;;;;;;;9.48;3.75;;;;;;;16.42;100.00;100364.69;5012066;28;20464;-65
2022/10/22 06:11:31;;;;;;;10.07;3.78;;;;;;;16.27;100.00;100361.31;5012262;28;20033;-65
2022/10/22 06:13:56;;;;;;;8.50;3.60;;;;;;;16.23;100.00;100380.38;5011839;28;20041;-66
2022/10/22 06:16:22;;;;;;;8.15;4.13;;;;;;;16.29;100.00;100372.56;5009577;28;20488;-65
2022/10/22 06:18:47;;;;;;;10.10;3.53;;;;;;;16.34;100.00;100384.97;5012483;28;20514;-65
2022/10/22 06:21:14;;;;;;;8.95;3.97;;;;;;;16.36;100.00;100382.59;5012452;28;20113;-65
2022/10/22 06:23:40;;;;;;;6.75;3.35;;;;;;;16.31;100.00;100378.38;5012099;28;20041;-65
2022/10/22 06:26:09;;;;;;;6.63;3.70;;;;;;;16.35;100.00;100378.34;5010545;28;20040;-66
2022/10/22 06:28:35;;;;;;;9.07;4.38;;;;;;;16.12;100.00;100376.94;5012267;28;20080;-65
2022/10/22 06:31:02;;;;;;;12.30;4.00;;;;;;;16.08;100.00;100381.66;5012066;28;20069;-66
2022/10/22 06:33:28;;;;;;;9.38;4.22;;;;;;;15.87;100.00;100376.31;5011678;28;20050;-66
2022/10/22 06:35:54;;;;;;;8.25;4.07;;;;;;;15.91;100.00;100381.75;5011009;28;20414;-66
2022/10/22 06:38:19;;;;;;;7.65;3.58;;;;;;;16.07;100.00;100385.53;5012098;28;20022;-68
2022/10/22 06:40:45;;;;;;;10.57;4.13;;;;;;;16.17;100.00;100387.41;5011979;28;20033;-65
2022/10/22 06:43:12;;;;;;;11.43;4.25;;;;;;;16.16;100.00;100385.84;5009717;28;20033;-65
2022/10/22 06:45:37;;;;;;;9.63;3.67;;;;;;;16.17;100.00;100392.06;5009891;28;20092;-65
2022/10/22 06:48:03;;;;;;;9.20;3.75;;;;;;;16.22;100.00;100391.63;5010424;28;20510;-65
2022/10/22 06:50:28;;;;;;;11.48;3.78;;;;;;;16.21;100.00;100395.53;5010339;28;20037;-66
2022/10/22 06:52:54;;;;;;;6.85;3.05;;;;;;;16.25;100.00;100399.78;5011441;28;20034;-65
2022/10/22 06:55:19;;;;;;;9.48;3.65;;;;;;;16.31;100.00;100393.91;5010818;28;20038;-65
2022/10/22 06:57:44;;;;;;;10.23;4.40;;;;;;;16.32;100.00;100404.38;4993254;28;20030;-65
2022/10/22 07:00:11;;;;;;;8.20;3.85;;;;;;;16.32;100.00;100395.47;4991816;28;20038;-66
2022/10/22 07:02:36;;;;;;;9.05;3.33;;;;;;;16.36;100.00;100404.34;4990546;28;20113;-65
2022/10/22 07:05:01;;;;;;;7.03;3.58;;;;;;;16.31;100.00;100407.50;4991466;28;20130;-66
2022/10/22 07:07:27;;;;;;;9.70;4.75;;;;;;;16.30;100.00;100406.72;5011467;28;20037;-66
2022/10/22 07:09:52;;;;;;;10.20;4.15;;;;;;;16.26;100.00;100412.19;5011605;28;20116;-66
2022/10/22 07:12:17;;;;;;;6.85;3.13;;;;;;;16.28;100.00;100420.69;5011292;28;20038;-65
2022/10/22 07:14:43;;;;;;;7.60;3.85;;;;;;;16.33;100.00;100429.59;5009821;28;20045;-66
2022/10/22 07:17:09;;;;;;;8.05;3.13;;;;;;;16.37;100.00;100433.84;5011136;28;20552;-66
2022/10/22 07:19:35;;;;;;;12.18;4.20;;;;;;;16.43;100.00;100429.53;5010226;28;20561;-66
2022/10/22 07:22:00;;;;;;;8.68;3.67;;;;;;;16.49;100.00;100440.78;5011182;28;20479;-66
2022/10/22 07:24:25;;;;;;;9.18;3.17;;;;;;;16.52;100.00;100439.97;5010079;28;20034;-65
2022/10/22 07:26:51;;;;;;;10.35;3.95;;;;;;;16.54;100.00;100438.41;5010005;28;20088;-65
2022/10/22 07:29:16;;;;;;;10.13;4.18;;;;;;;16.55;100.00;100444.63;5010963;28;20076;-66
2022/10/22 07:31:42;;;;;;;9.80;4.18;;;;;;;16.59;100.00;100446.13;5009689;28;20033;-66
2022/10/22 07:34:08;;;;;;;7.25;3.45;;;;;;;16.60;100.00;100444.19;5009618;28;20058;-66
2022/10/22 07:36:33;;;;;;;11.20;4.20;;;;;;;16.46;100.00;100447.75;5011124;28;20045;-66
2022/10/22 07:38:59;;;;;;;7.32;3.38;;;;;;;16.46;100.00;100453.22;5011069;28;20028;-65
2022/10/22 07:41:26;;;;;;;9.98;3.63;;;;;;;16.48;100.00;100456.34;5010375;28;20395;-65
2022/10/22 07:43:52;;;;;;;8.63;3.60;;;;;;;16.46;100.00;100455.91;5010597;28;20033;-66
2022/10/22 07:46:18;;;;;;;7.18;3.40;;;;;;;16.53;100.00;100455.88;5010396;28;20498;-66
2022/10/22 07:48:44;;;;;;;7.72;3.58;;;;;;;16.59;100.00;100456.25;5010923;28;20041;-66
2022/10/22 07:51:10;;;;;;;7.47;2.88;;;;;;;16.59;100.00;100459.75;5010524;28;20036;-66
2022/10/22 07:53:39;;;;;;;8.82;3.75;;;;;;;16.65;100.00;100463.56;5011160;28;20041;-66
2022/10/22 07:56:05;;;;;;;7.97;2.75;;;;;;;16.81;100.00;100468.50;5013219;28;20042;-66
2022/10/22 07:58:30;;;;;;;10.55;3.97;;;;;;;17.02;100.00;100473.75;5014773;28;20060;-66
2022/10/22 08:00:59;;;;;;;8.85;3.97;;;;;;;17.18;100.00;100476.75;5012902;28;20053;-65
2022/10/22 08:03:24;;;;;;;6.85;3.75;;;;;;;17.32;100.00;100482.06;5011957;28;20501;-65
2022/10/22 08:05:50;;;;;;;8.80;3.55;;;;;;;17.51;100.00;100478.75;5013500;28;20030;-65
2022/10/22 08:08:16;;;;;;;8.85;3.17;;;;;;;17.65;100.00;100489.47;5014890;28;20076;-65
2022/10/22 08:10:43;;;;;;;8.93;3.42;;;;;;;17.72;100.00;100488.66;5014513;28;20509;-65
2022/10/22 08:13:08;;;;;;;9.35;3.70;;;;;;;17.73;100.00;100488.22;5013994;28;20070;-65
2022/10/22 08:15:34;;;;;;;9.65;3.47;;;;;;;17.87;100.00;100487.28;5013317;28;20077;-65
2022/10/22 08:17:59;;;;;;;9.10;3.70;;;;;;;18.06;100.00;100489.38;5014550;28;20030;-65
2022/10/22 08:20:24;;;;;;;7.57;3.50;;;;;;;18.07;100.00;100487.44;5014313;28;20042;-65
2022/10/22 08:22:50;;;;;;;9.07;3.97;;;;;;;18.18;100.00;100490.78;5014231;28;20073;-65
2022/10/22 08:25:17;;;;;;;6.30;3.03;;;;;;;18.39;100.00;100498.69;5013500;28;20040;-65
2022/10/22 08:27:42;;;;;;;7.88;3.15;;;;;;;18.51;100.00;100498.16;5014477;28;20045;-65
2022/10/22 08:30:08;;;;;;;8.70;3.25;;;;;;;18.71;100.00;100496.28;5014035;28;20402;-65
2022/10/22 08:32:34;;;;;;;6.03;3.22;;;;;;;18.85;100.00;100507.00;5014526;28;20034;-65
2022/10/22 08:34:59;;;;;;;6.20;3.47;;;;;;;18.91;100.00;100497.16;5013191;28;20478;-65
2022/10/22 08:37:24;;;;;;;6.75;3.47;;;;;;;19.02;100.00;100503.19;5014264;28;20042;-65
2022/10/22 08:39:50;;;;;;;9.30;2.95;;;;;;;18.98;97.99;100501.72;5013915;28;20649;-65
2022/10/22 08:42:43;;;;;;;7.10;2.67;;;;;;;19.08;98.39;100501.53;5013738;28;20030;-65
2022/10/22 08:45:38;;;;;;;7.13;3.50;;;;;;;19.17;97.84;100501.75;5013271;28;20505;-65
2022/10/22 08:48:17;;;;;;;5.00;2.78;;;;;;;19.36;97.53;100513.94;4961092;28;20059;-65
2022/10/22 08:50:46;;;;;;;7.43;3.70;;;;;;;19.33;96.04;100512.84;5013420;28;20546;-65
2022/10/22 08:53:16;;;;;;;6.30;2.67;;;;;;;19.48;96.52;100519.59;5012616;28;20577;-65
2022/10/22 08:55:42;;;;;;;5.78;2.90;;;;;;;19.49;95.94;100523.84;5011913;28;20045;-65
2022/10/22 08:58:27;;;;;;;5.65;2.72;;;;;;;19.56;95.44;100520.22;5013513;28;20121;-65
2022/10/22 09:00:59;;;;;;;6.47;2.95;;;;;;;19.66;94.91;100525.50;5013144;28;20037;-65
2022/10/22 09:03:36;;;;;;;6.80;3.42;;;;;;;19.63;94.57;100528.28;5013801;28;20045;-65
2022/10/22 09:06:07;;;;;;;9.50;3.78;;;;;;;19.61;94.35;100522.47;5011241;28;20100;-65
2022/10/22 09:08:35;;;;;;;6.40;3.45;;;;;;;19.69;94.21;100523.88;5013306;28;20501;-65
2022/10/22 09:11:12;;;;;;;4.95;2.85;;;;;;;19.66;94.22;100525.50;5012341;28;20521;-65
2022/10/22 09:13:41;;;;;;;4.53;2.40;;;;;;;19.83;94.02;100522.81;5013092;28;20089;-65
2022/10/22 09:16:26;;;;;;;5.03;2.42;;;;;;;19.99;93.44;100528.38;5010557;28;20053;-65
2022/10/22 09:18:55;;;;;;;4.32;2.65;;;;;;;20.05;92.78;100526.69;5009154;28;20105;-65
2022/10/22 09:21:50;;;;;;;9.20;2.75;;;;;;;20.16;92.31;100533.47;4975600;28;20035;-65
2022/10/22 09:24:30;;;;;;;4.35;2.30;;;;;;;20.30;91.64;100535.19;4992989;28;20046;-65
2022/10/22 09:26:56;;;;;;;9.18;2.38;;;;;;;20.47;91.20;100523.06;5013355;28;20034;-65
2022/10/22 09:29:29;;;;;;;4.90;2.58;;;;;;;20.55;89.93;100527.19;5013295;28;20038;-66
2022/10/22 09:31:54;;;;;;;5.30;2.97;;;;;;;20.53;89.20;100533.09;5013017;28;20045;-66
2022/10/22 09:34:21;;;;;;;5.20;2.60;;;;;;;20.63;89.08;100531.31;5011760;28;20041;-66
2022/10/22 09:36:46;;;;;;;3.10;1.92;;;;;;;20.67;88.43;100526.53;5013237;28;20073;-65
2022/10/22 09:39:27;;;;;;;4.28;2.10;;;;;;;20.89;88.63;100535.78;5012021;28;20069;-65
2022/10/22 09:41:52;;;;;;;4.07;1.87;;;;;;;20.87;86.45;100540.91;5013131;28;20030;-65
2022/10/22 09:44:19;;;;;;;5.30;2.63;;;;;;;20.77;86.41;100538.44;5011644;28;20434;-65
2022/10/22 09:46:45;;;;;;;5.45;2.10;;;;;;;20.73;86.10;100526.78;5012934;28;20057;-65
2022/10/22 09:49:17;;;;;;;3.90;2.10;;;;;;;20.85;86.86;100529.59;5012739;28;20037;-65
2022/10/22 09:51:50;;;;;;;4.15;1.95;;;;;;;20.85;86.47;100537.06;5012919;28;20441;-65
2022/10/22 09:54:32;;;;;;;2.47;1.70;;;;;;;20.91;86.19;100538.84;5012353;28;20053;-65
2022/10/22 09:57:04;;;;;;;3.17;1.92;;;;;;;20.90;86.23;100542.03;5009842;28;20404;-65
2022/10/22 09:59:32;;;;;;;3.28;1.48;;;;;;;20.85;85.82;100548.03;5012585;28;20088;-66
2022/10/22 10:02:01;;;;;;;4.22;1.90;;;;;;;20.77;85.98;100539.19;5011045;28;20021;-65
2022/10/22 10:04:26;;;;;;;3.53;1.90;;;;;;;20.93;86.04;100546.63;5011600;28;20045;-65
2022/10/22 10:06:55;;;;;;;2.90;1.42;;;;;;;21.05;85.83;100549.50;5012675;28;20479;-66
2022/10/22 10:09:23;;;;;;;2.50;1.60;;;;;;;21.09;86.63;100549.41;5011558;28;20037;-66
2022/10/22 10:12:08;;;;;;;4.75;1.83;;;;;;;21.07;85.36;100549.84;5011859;28;20041;-65
2022/10/22 10:14:59;;;;;;;2.25;1.40;;;;;;;21.10;85.57;100550.97;5011583;28;20050;-65
2022/10/22 10:17:39;;;;;;;4.30;1.75;;;;;;;21.10;85.53;100557.19;4998779;23;20046;-66
2022/10/22 10:20:34;;;;;;;2.10;1.35;;;;;;;21.19;84.70;100548.38;4991747;28;20438;-66
2022/10/22 10:23:25;;;;;;;2.00;1.17;;;;;;;21.16;84.69;100550.00;4992904;28;20491;-65
2022/10/22 10:26:01;;;;;;;1.83;1.00;;;;;;;21.07;84.49;100555.31;4994817;28;20029;-66
2022/10/22 10:28:53;;;;;;;2.58;1.27;;;;;;;21.23;84.33;100549.84;5012095;28;20061;-65
2022/10/22 10:31:51;;;;;;;5.47;1.77;;;;;;;21.38;84.03;100550.25;5012050;28;20053;-65
2022/10/22 10:34:46;;;;;;;3.53;1.20;;;;;;;21.49;83.29;100556.22;5010293;28;20045;-65
2022/10/22 10:37:25;;;;;;;1.55;1.23;;;;;;;21.63;81.25;100555.06;5011911;28;20038;-65
2022/10/22 10:40:06;;;;;;;3.25;1.50;;;;;;;21.76;81.97;100544.91;5011907;28;20124;-65
2022/10/22 10:42:53;;;;;;;2.72;1.10;;;;;;;21.71;81.71;100543.50;5010436;28;20034;-65
2022/10/22 10:45:21;;;;;;;4.07;1.13;;;;;;;21.78;81.85;100539.78;5011031;28;20041;-65
2022/10/22 10:48:11;;;;;;;6.38;1.27;;;;;;;21.81;81.38;100547.19;5011980;28;20061;-65
2022/10/22 10:50:52;;;;;;;2.08;1.10;;;;;;;21.88;79.99;100545.00;5010784;28;20046;-65
2022/10/22 10:53:39;;;;;;;2.35;0.95;;;;;;;21.88;80.09;100544.22;5011655;28;20025;-66
2022/10/22 10:56:05;;;;;;;1.30;0.80;;;;;;;21.86;79.90;100541.16;5008077;28;20121;-65
2022/10/22 10:58:53;;;;;;;3.63;0.90;;;;;;;21.96;80.65;100551.84;5010692;28;20156;-65
2022/10/22 11:01:33;;;;;;;1.67;0.90;;;;;;;22.02;78.95;100543.84;5010550;28;20034;-65
2022/10/22 11:04:12;;;;;;;1.95;0.70;;;;;;;21.97;79.08;100556.09;5009522;28;20410;-66
2022/10/22 11:06:38;;;;;;;2.13;1.05;;;;;;;21.74;77.79;100548.09;5011661;28;20116;-65
2022/10/22 11:09:19;;;;;;;3.30;0.63;;;;;;;21.85;78.77;100539.63;5011754;28;20418;-65
2022/10/22 11:11:54;;;;;;;1.02;0.73;;;;;;;21.78;78.93;100553.47;5009930;28;20036;-66
2022/10/22 11:14:27;;;;;;;1.08;0.60;;;;;;;21.87;79.10;100545.44;5010594;28;20449;-65
2022/10/22 11:17:02;;;;;;;2.25;0.75;;;;;;;21.86;79.14;100549.38;5011322;28;20532;-65
2022/10/22 11:19:37;;;;;;;1.02;0.60;;;;;;;21.94;79.13;100545.25;5010476;28;20072;-65
2022/10/22 11:22:15;;;;;;;2.90;0.90;;;;;;;21.95;78.98;100541.31;5011072;28;20041;-65
2022/10/22 11:24:51;;;;;;;2.78;1.08;;;;;;;21.84;79.53;100543.56;5010609;28;20100;-65
2022/10/22 11:27:36;;;;;;;1.45;0.75;;;;;;;21.91;78.46;100546.88;5010671;28;20133;-65
2022/10/22 11:30:07;;;;;;;1.88;0.80;;;;;;;21.86;78.29;100552.91;4989724;28;20051;-66